AirNav   ProFlight Series 2 Aviation Headset
 
 790 users online  

1PS7 Hahnemann Heliport
Philadelphia, Pennsylvania, USA

GOING TO PHILADELPHIA?


FAA INFORMATION EFFECTIVE 18 JUNE 2020

Location

FAA Identifier: 1PS7
Lat/Long: 39-57-27.5800N 075-09-49.5600W
39-57.459667N 075-09.826000W
39.9576611,-75.1637667
(estimated)
Elevation: 166 ft. / 51 m (estimated)
Variation: 11W (1980)
Time zone: UTC -4 (UTC -5 during Standard Time)
Zip code: 19102

Heliport Operations

Heliport use: Private use, MEDICAL USE.
Activation date: 11/1986
Control tower: no
ARTCC: NEW YORK CENTER
FSS: WILLIAMSPORT FLIGHT SERVICE STATION
Attendance: CONTINUOUS
Wind indicator: yes
Segmented circle: no

Heliport Communications

WX ASOS at PHL (6 nm SW): PHONE 215-492-9617
WX ASOS at PNE (10 nm NE): 121.15 (215-677-0146)
WX AWOS-3 at LOM (12 nm NW): 118.925 (215-646-1068)
WX ASOS at VAY (15 nm E): 119.325 (609-267-1176)
WX AWOS-3T at OQN (19 nm W): 121.4 ((610) 692-6190)

Nearby radio navigation aids

VOR radial/distance  VOR name  Freq  Var
OODr028/20.3WOODSTOWN VORTAC112.8010W
ARDr224/21.3YARDLEY VOR/DME108.2010W
MXEr093/23.4MODENA VORTAC113.2009W
PTWr140/24.1POTTSTOWN VORTAC116.5009W
GXUr275/26.3MC GUIRE VORTAC110.6012W
DQOr061/26.4DUPONT VORTAC114.0010W
VCNr350/26.8CEDAR LAKE VOR/DME115.2010W
RBVr254/34.0ROBBINSVILLE VORTAC113.8010W
CYNr294/34.7COYLE VORTAC113.4010W

 
NDB name  Hdg/Dist  Freq  Var  ID
AMBLER163/11.527512WING .. -. --.
RAINBOW009/32.436311WRNB .-. -. -...
LAKEHURST273/38.439611WNEL -. . .-..

Heliport Services

Runway Information

Helipad H1

Dimensions: 70 x 35 ft. / 21 x 11 m
Surface: concrete
ROOFTOP.
Latitude: 39-57.459667N
Longitude: 075-09.826000W
Elevation: 166.0 ft.
Traffic pattern: leftleft

Heliport Ownership and Management from official FAA records

Ownership: Privately-owned
Owner: HAHNEMANN UNIVERSITY HOSPITAL
BROAD & VINE STREETS
PHILADELPHIA, PA 19102
Phone (215) 762-7000
Manager: BARBARA A BOSTON
MS 300-BROAD & VINE STREETS
PHILADELPHIA, PA 19102
Phone (215) 762-8918

Additional Remarks

FATO 65 FT X 65 FT.
FOR CD CTC PHILADELPHIA APCH AT 800-354-9884.

Instrument Procedures

There are no published instrument procedures at 1PS7.

Some nearby airports with instrument procedures:

KPHL - Philadelphia International Airport (6 nm SW)
KPNE - Northeast Philadelphia Airport (10 nm NE)
KLOM - Wings Field Airport (12 nm NW)
19N - Camden County Airport (15 nm SE)
KVAY - South Jersey Regional Airport (15 nm E)
17N - Cross Keys Airport (16 nm S)
N14 - Flying W Airport (16 nm E)
7N7 - Spitfire Aerodrome (17 nm SW)
N10 - Perkiomen Valley Airport (19 nm NW)
KOQN - Brandywine Regional Airport (19 nm W)
 
Loc | Ops | Rwys | IFR | FBO | Links
Com | Nav | Svcs | Stats | Notes
Area around 1PS7 (Hahnemann Heliport)
 
Road maps at: MapQuest Bing Google
 
Aerial photo
No photo
 
Sectional chart

 
Airport distance calculator
Flying to Hahnemann Heliport? Find the distance to fly.

From to 1PS7

Sunrise and sunset
Times for 14-Jul-2020
 Local
(UTC-4)
 Zulu
(UTC)
Morning civil twilight05:1409:14
Sunrise05:4509:45
Sunset20:2800:28
Evening civil twilight20:5900:59

Current date and time
Zulu (UTC)  15-Jul-2020 03:30:27
Local (UTC-4)  14-Jul-2020 23:30:27
 
METAR
KPHL 
6nm SW 
150254Z 30005KT 10SM FEW080 FEW250 28/15 A3006 RMK AO2 SLP177 T02780150 51013
KPNE 
10nm NE 
150254Z 29003KT 10SM CLR 25/17 A3007 RMK AO2 SLP180 T02500167 51014
KLOM 
12nm NW 
150315Z AUTO 00000KT 10SM CLR 20/19 A3007 RMK AO2 T02010186
KVAY 
15nm E 
ASOS 119.325 609-267-1176
150254Z AUTO 00000KT 10SM SCT070 22/18 A3006 RMK AO2 SLP177 T02170178 51017
KOQN 
19nm W 
150315Z AUTO 00000KT 10SM CLR 22/17 A3008 RMK AO2
TAF
KPHL 
6nm SW 
142100Z 1421/1524 33010KT P6SM FEW060 FM150800 01005KT P6SM SKC FM151200 05005KT P6SM FEW150 FM151900 14005KT P6SM SCT060
KPNE 
10nm NE 
141720Z 1418/1518 32008G18KT P6SM FEW060 FM142300 VRB04KT P6SM SKC FM151200 05005KT P6SM FEW150
NOTAMs
Click for the latest NOTAMs
NOTAMs are issued by the DoD/FAA and will open in a separate window not controlled by AirNav.

 

 
 

Would you like to see your business listed on this page?

 If your business provides an interesting product or service to pilots, flight crews, aircraft, or users of the Hahnemann Heliport, you should consider listing it here.  To start the listing process, click on the button below
 
Add a business
 

Other Pages about Hahnemann Heliport

Update a link
 
Copyright © AirNav, LLC. All rights reserved. Privacy Policy  Contact